Terminal Aerodrome Forecast
Issued by NWS

Home | Current Version | Previous Version | Text Only | Print | Product List | Glossary On
Versions: 1 2 3 4 5 6 7 8 9 10 11 12 13 14 15 16 17 18 19 20 21 22 23 24
000
FTUS43 KDLH 201700
TAFBRD
TAF
KBRD 201728Z 2018/2118 29011KT P6SM BKN025
     FM201930 28009KT P6SM SCT025
     FM202100 27010KT 6SM -TSRA SCT015 BKN025CB
     FM210000 29010KT 6SM -SHRA VCTS OVC015CB
     FM210300 31013KT P6SM VCSH BKN015
     FM211400 33007KT P6SM BKN020=

USA.gov is the U.S. government's official web portal to all federal, state and local government web resources and services.